Time;durP1;ratioP1;P1;durP2;ratioP2;P2;SDS_P1;SDS_P2;PMS_P1;PMS_P2;Temp;Humidity;BMP_temperature;BMP_pressure;BME280_temperature;BME280_humidity;BME280_pressure;Samples;Min_cycle;Max_cycle;Signal;HPM_P1;HPM_P2
2021/08/29 00:01:58;;;;;;;13.05;7.60;;;;;;;14.92;77.51;100057.75;5069105;28;20041;-73
2021/08/29 00:04:23;;;;;;;11.18;6.68;;;;;;;14.91;78.15;100058.69;5069571;28;20064;-72
2021/08/29 00:06:49;;;;;;;10.65;5.50;;;;;;;14.94;77.59;100058.47;5067927;28;20033;-71
2021/08/29 00:09:14;;;;;;;12.75;7.10;;;;;;;14.90;78.28;100055.19;5067852;28;20071;-73
2021/08/29 00:11:40;;;;;;;12.43;6.43;;;;;;;14.88;77.95;100048.25;5068920;28;20032;-72
2021/08/29 00:14:05;;;;;;;8.10;4.97;;;;;;;14.88;77.37;100050.91;5070077;28;20033;-71
2021/08/29 00:16:31;;;;;;;10.90;6.03;;;;;;;14.86;77.55;100043.03;5051396;28;20024;-72
2021/08/29 00:18:57;;;;;;;8.90;5.15;;;;;;;14.80;77.29;100041.63;5069170;28;20501;-72
2021/08/29 00:21:22;;;;;;;9.73;5.78;;;;;;;14.76;77.42;100036.59;5068772;28;20094;-73
2021/08/29 00:23:47;;;;;;;7.88;4.32;;;;;;;14.74;77.66;100038.50;5069298;28;20036;-73
2021/08/29 00:26:13;;;;;;;7.75;4.47;;;;;;;14.75;77.90;100035.75;5069210;28;20055;-73
2021/08/29 00:28:38;;;;;;;7.22;4.72;;;;;;;14.74;77.95;100027.88;5068813;28;20698;-72
2021/08/29 00:31:04;;;;;;;9.15;4.63;;;;;;;14.71;77.76;100025.44;5068778;28;20124;-73
2021/08/29 00:33:29;;;;;;;10.98;5.45;;;;;;;14.66;78.18;100024.88;5069066;28;20040;-73
2021/08/29 00:35:55;;;;;;;9.32;5.68;;;;;;;14.57;78.12;100029.81;5067755;28;20089;-73
2021/08/29 00:38:21;;;;;;;9.98;5.40;;;;;;;14.54;78.64;100024.66;5069137;28;20036;-74
2021/08/29 00:40:47;;;;;;;9.93;5.93;;;;;;;14.52;78.42;100029.22;5068022;28;20093;-73
2021/08/29 00:43:12;;;;;;;13.40;6.88;;;;;;;14.45;78.54;100029.66;5069022;28;20494;-73
2021/08/29 00:45:38;;;;;;;9.65;5.88;;;;;;;14.39;78.98;100026.44;5069596;28;20135;-73
2021/08/29 00:48:06;;;;;;;8.90;5.43;;;;;;;14.36;78.84;100023.97;5069229;28;20046;-72
2021/08/29 00:50:32;;;;;;;10.75;5.78;;;;;;;14.34;78.80;100015.25;5068194;28;20032;-73
2021/08/29 00:52:57;;;;;;;9.18;5.35;;;;;;;14.33;79.73;100023.31;5068839;28;20183;-73
2021/08/29 00:55:23;;;;;;;8.88;4.70;;;;;;;14.34;79.01;100019.72;5067369;28;20036;-72
2021/08/29 00:57:48;;;;;;;14.60;5.63;;;;;;;14.37;79.15;100020.41;5068935;28;20497;-72
2021/08/29 01:00:14;;;;;;;7.97;5.25;;;;;;;14.39;79.68;100020.28;5068382;28;20039;-73
2021/08/29 01:02:42;;;;;;;11.00;6.00;;;;;;;14.39;79.08;100018.47;5035855;28;20131;-73
2021/08/29 01:05:21;;;;;;;8.55;5.72;;;;;;;14.41;79.28;100014.91;5068220;28;20050;-73
2021/08/29 01:07:59;;;;;;;10.75;5.25;;;;;;;14.42;79.51;100017.44;5068177;28;20029;-72
2021/08/29 01:10:43;;;;;;;11.88;6.53;;;;;;;14.44;79.33;100010.25;5067507;28;20032;-73
2021/08/29 01:13:24;;;;;;;11.57;5.95;;;;;;;14.42;78.90;100012.13;5067189;28;20134;-73
2021/08/29 01:15:55;;;;;;;15.35;6.40;;;;;;;14.44;79.18;100001.44;5068527;28;20079;-71
2021/08/29 01:18:24;;;;;;;13.35;6.70;;;;;;;14.43;78.77;100005.91;5071426;28;20032;-72
2021/08/29 01:21:11;;;;;;;9.05;6.10;;;;;;;14.44;78.59;100007.59;5067942;28;20526;-72
2021/08/29 01:23:46;;;;;;;9.93;5.65;;;;;;;14.45;78.93;100004.00;5067020;28;20040;-73
2021/08/29 01:26:12;;;;;;;;;;;;;;;14.42;78.88;100005.97;5068814;28;20040;-72
2021/08/29 01:28:43;;;;;;;;;;;;;;;14.42;79.17;100005.97;5069094;28;20051;-73
2021/08/29 01:31:09;;;;;;;7.63;5.38;;;;;;;14.41;78.96;100005.13;5067552;28;19917;-72
2021/08/29 01:33:34;;;;;;;9.82;6.43;;;;;;;14.41;79.11;100005.13;5067173;28;20047;-74
2021/08/29 01:36:00;;;;;;;11.98;6.82;;;;;;;14.43;78.88;100010.34;5068366;28;20051;-72
2021/08/29 01:38:25;;;;;;;11.38;7.32;;;;;;;14.42;79.92;100009.47;5067488;28;20047;-71
2021/08/29 01:40:51;;;;;;;7.15;5.63;;;;;;;14.41;79.55;100007.78;5068340;28;20656;-72
2021/08/29 01:43:17;;;;;;;10.98;6.00;;;;;;;14.42;79.66;100011.28;5072519;28;20033;-73
2021/08/29 01:45:43;;;;;;;11.70;7.50;;;;;;;14.43;79.47;100002.41;5071952;28;20033;-72
2021/08/29 01:48:08;;;;;;;12.07;6.68;;;;;;;14.43;79.77;100005.91;5071953;28;20074;-73
2021/08/29 01:50:34;;;;;;;7.93;5.40;;;;;;;14.45;79.73;100005.78;5070798;28;20060;-73
2021/08/29 01:52:59;;;;;;;17.48;7.70;;;;;;;14.47;79.33;100003.88;5071606;28;20037;-72
2021/08/29 01:55:24;;;;;;;8.25;6.03;;;;;;;14.48;79.28;100011.75;5071917;28;20115;-73
2021/08/29 01:57:50;;;;;;;13.02;6.78;;;;;;;14.51;79.34;100011.56;5071931;28;20162;-72
2021/08/29 02:00:17;;;;;;;9.23;5.82;;;;;;;14.50;79.08;100014.34;5071143;28;20043;-72
2021/08/29 02:02:42;;;;;;;12.63;7.93;;;;;;;14.48;79.12;100013.56;5072893;28;20116;-73
2021/08/29 02:05:09;;;;;;;13.38;7.15;;;;;;;14.47;79.29;100012.72;5070969;28;20088;-72
2021/08/29 02:07:40;;;;;;;10.20;6.30;;;;;;;14.45;79.55;100013.72;5072256;28;20040;-74
2021/08/29 02:10:13;;;;;;;13.20;7.28;;;;;;;14.45;79.47;100008.44;5069925;28;20489;-73
2021/08/29 02:12:43;;;;;;;13.50;8.70;;;;;;;14.43;79.75;100013.84;5072145;28;20051;-73
2021/08/29 02:15:32;;;;;;;11.48;6.55;;;;;;;14.41;79.92;100018.38;5072506;28;20036;-72
2021/08/29 02:18:01;;;;;;;15.00;7.85;;;;;;;14.41;79.83;100009.59;5072529;28;20077;-73
2021/08/29 02:20:29;;;;;;;13.13;8.05;;;;;;;14.36;79.73;100005.41;5070986;28;20119;-73
2021/08/29 02:22:55;;;;;;;13.13;7.43;;;;;;;14.34;79.92;100009.94;5072213;28;20043;-73
2021/08/29 02:25:21;;;;;;;12.15;7.85;;;;;;;14.33;79.90;100008.25;5072186;28;20052;-72
2021/08/29 02:27:47;;;;;;;11.38;7.57;;;;;;;14.35;80.32;100001.06;5071865;28;20064;-72
2021/08/29 02:30:13;;;;;;;10.48;6.45;;;;;;;14.36;80.27;100013.38;5070506;28;20501;-73
2021/08/29 02:32:40;;;;;;;11.07;7.22;;;;;;;14.39;79.90;100007.88;5071715;28;20082;-72
2021/08/29 02:35:07;;;;;;;12.88;6.28;;;;;;;14.39;79.69;100007.88;5071255;28;20108;-73
2021/08/29 02:37:33;;;;;;;10.60;7.13;;;;;;;14.41;79.51;99999.81;5071427;28;20058;-72
2021/08/29 02:39:59;;;;;;;9.65;6.80;;;;;;;14.43;80.05;100005.91;5069600;28;20416;-72
2021/08/29 02:42:30;;;;;;;16.33;9.07;;;;;;;14.43;79.92;100007.69;5071557;28;20037;-72
2021/08/29 02:44:57;;;;;;;11.65;7.38;;;;;;;14.43;80.09;100011.19;5070930;28;20033;-73
2021/08/29 02:47:23;;;;;;;9.38;6.43;;;;;;;14.47;79.71;100011.84;5070971;28;20115;-72
2021/08/29 02:49:50;;;;;;;13.55;6.70;;;;;;;14.45;79.44;100006.66;5070783;28;20166;-72
2021/08/29 02:52:19;;;;;;;11.90;7.68;;;;;;;14.44;80.29;100006.75;5070328;28;20067;-73
2021/08/29 02:54:47;;;;;;;15.75;9.02;;;;;;;14.44;79.72;100012.03;5071294;28;20455;-73
2021/08/29 02:57:14;;;;;;;9.75;6.60;;;;;;;14.42;80.04;100012.13;5069836;28;20050;-72
2021/08/29 02:59:40;;;;;;;10.35;6.53;;;;;;;14.45;79.71;100005.78;5071529;28;20068;-72
2021/08/29 03:02:07;;;;;;;13.18;7.75;;;;;;;14.46;79.83;100004.84;5071645;28;20041;-72
2021/08/29 03:04:34;;;;;;;15.07;6.85;;;;;;;14.42;79.92;99998.88;5072009;28;20048;-72
2021/08/29 03:06:59;;;;;;;16.13;5.78;;;;;;;14.43;80.13;99997.94;5071673;28;20105;-72
2021/08/29 03:09:25;;;;;;;8.90;6.38;;;;;;;14.44;79.95;99999.63;5069677;28;20052;-72
2021/08/29 03:11:50;;;;;;;12.75;6.57;;;;;;;14.44;79.82;99993.47;5069678;28;20492;-73
2021/08/29 03:14:16;;;;;;;13.45;7.25;;;;;;;14.41;80.07;99993.69;5070771;28;20028;-72
2021/08/29 03:16:41;;;;;;;15.45;8.25;;;;;;;14.38;80.08;99992.06;5071007;28;20043;-72
2021/08/29 03:19:07;;;;;;;13.07;7.25;;;;;;;14.40;80.13;99998.13;5070897;28;20374;-73
2021/08/29 03:21:33;;;;;;;9.82;7.90;;;;;;;14.42;80.64;99998.88;5069714;28;20401;-72
2021/08/29 03:23:58;;;;;;;9.57;6.75;;;;;;;14.44;79.83;99998.78;5071817;28;20044;-71
2021/08/29 03:26:24;;;;;;;12.25;7.25;;;;;;;14.47;79.67;100001.25;5072047;28;20111;-73
2021/08/29 03:28:49;;;;;;;9.07;5.78;;;;;;;14.50;79.72;99998.41;5069181;28;20051;-72
2021/08/29 03:31:15;;;;;;;13.82;6.72;;;;;;;14.50;79.56;99996.59;5069593;28;20523;-73
2021/08/29 03:33:46;;;;;;;12.18;6.57;;;;;;;14.50;79.83;99993.13;5070719;28;20047;-73
2021/08/29 03:36:18;;;;;;;11.45;6.65;;;;;;;14.50;79.53;99993.13;5070543;28;20032;-73
2021/08/29 03:38:45;;;;;;;9.13;5.93;;;;;;;14.50;79.64;99993.13;5070298;28;20040;-73
2021/08/29 03:41:13;;;;;;;11.98;7.57;;;;;;;14.50;79.41;99998.41;5069005;28;20493;-71
2021/08/29 03:43:39;;;;;;;11.10;7.25;;;;;;;14.50;79.31;99993.13;5068103;28;20036;-74
2021/08/29 03:46:04;;;;;;;13.30;7.20;;;;;;;14.50;79.99;99987.81;5069729;28;20046;-72
2021/08/29 03:48:30;;;;;;;12.38;7.47;;;;;;;14.48;79.52;99989.69;5073097;28;20115;-72
2021/08/29 03:50:56;;;;;;;11.48;6.70;;;;;;;14.47;79.41;99975.59;5068058;28;20043;-72
2021/08/29 03:53:23;;;;;;;14.38;7.57;;;;;;;14.41;80.02;99986.56;5070260;28;20108;-72
2021/08/29 03:55:49;;;;;;;8.80;5.68;;;;;;;14.42;80.22;99979.44;5069922;28;20032;-72
2021/08/29 03:58:14;;;;;;;14.68;7.80;;;;;;;14.42;80.00;99975.00;5069577;28;20033;-72
2021/08/29 04:00:40;;;;;;;10.93;7.10;;;;;;;14.43;80.45;99983.81;5069044;28;20049;-72
2021/08/29 04:03:05;;;;;;;13.25;7.88;;;;;;;14.45;80.53;99979.25;5069338;28;20047;-72
2021/08/29 04:05:31;;;;;;;16.88;8.00;;;;;;;14.47;80.56;99985.31;5068037;28;20558;-72
2021/08/29 04:08:00;;;;;;;11.30;8.98;;;;;;;14.49;80.31;99978.97;5070286;28;20032;-72
2021/08/29 04:10:26;;;;;;;13.00;7.38;;;;;;;14.48;80.27;99971.97;5042579;28;20060;-72
2021/08/29 04:12:52;;;;;;;13.60;6.72;;;;;;;14.52;80.62;99980.56;5068236;28;20028;-72
2021/08/29 04:15:19;;;;;;;14.70;7.32;;;;;;;14.48;80.66;99973.78;5070461;28;20043;-72
2021/08/29 04:17:45;;;;;;;16.30;8.02;;;;;;;14.48;80.83;99968.47;5069851;28;20075;-72
2021/08/29 04:20:12;;;;;;;18.75;8.68;;;;;;;14.51;80.75;99965.63;5068901;28;20032;-74
2021/08/29 04:22:37;;;;;;;10.45;7.53;;;;;;;14.53;80.40;99961.06;5069666;28;20045;-73
2021/08/29 04:25:03;;;;;;;15.23;7.95;;;;;;;14.53;80.45;99969.03;5069413;28;20120;-73
2021/08/29 04:27:29;;;;;;;14.38;8.48;;;;;;;14.54;80.41;99968.94;5073147;28;20040;-72
2021/08/29 04:29:54;;;;;;;10.35;7.40;;;;;;;14.56;81.07;99972.38;5073387;28;20041;-73
2021/08/29 04:32:20;;;;;;;11.43;6.80;;;;;;;14.58;80.69;99969.63;5072721;28;20043;-73
2021/08/29 04:34:45;;;;;;;14.73;7.50;;;;;;;14.61;80.42;99974.72;5076277;28;20036;-73
2021/08/29 04:37:10;;;;;;;11.40;6.60;;;;;;;14.60;80.28;99965.94;5073310;28;20044;-73
2021/08/29 04:39:40;;;;;;;13.65;9.00;;;;;;;14.59;80.33;99966.88;5070374;28;20535;-73
2021/08/29 04:42:06;;;;;;;10.48;6.50;;;;;;;14.60;80.44;99963.28;5068813;28;20037;-74
2021/08/29 04:44:31;;;;;;;17.52;6.78;;;;;;;14.64;80.64;99960.41;5068051;28;20040;-73
2021/08/29 04:46:57;;;;;;;12.40;6.72;;;;;;;14.66;80.14;99970.00;5068647;28;20032;-72
2021/08/29 04:49:22;;;;;;;10.68;7.15;;;;;;;14.66;80.52;99961.19;5068841;28;20035;-72
2021/08/29 04:51:47;;;;;;;19.05;7.47;;;;;;;14.69;80.36;99969.78;5068748;28;20036;-72
2021/08/29 04:54:13;;;;;;;17.80;9.00;;;;;;;14.69;80.36;99967.13;5068543;28;20029;-73
2021/08/29 04:56:39;;;;;;;14.88;8.00;;;;;;;14.66;80.92;99966.50;5066955;28;20052;-73
2021/08/29 04:59:05;;;;;;;15.25;8.38;;;;;;;14.65;80.83;99972.75;5067216;28;20051;-73
2021/08/29 05:01:31;;;;;;;16.30;8.23;;;;;;;14.69;81.20;99974.25;5067576;28;20036;-72
2021/08/29 05:03:58;;;;;;;14.07;7.03;;;;;;;14.69;81.84;99976.91;5068962;28;20032;-72
2021/08/29 05:06:24;;;;;;;15.57;7.55;;;;;;;14.69;80.86;99972.44;5069585;28;20034;-73
2021/08/29 05:08:49;;;;;;;11.57;7.75;;;;;;;14.70;80.76;99976.81;5070204;28;20120;-74
2021/08/29 05:11:14;;;;;;;14.88;7.57;;;;;;;14.70;80.71;99974.16;5069156;28;20040;-74
2021/08/29 05:13:40;;;;;;;14.75;8.45;;;;;;;14.69;80.99;99975.09;5070533;28;20082;-74
2021/08/29 05:16:05;;;;;;;16.98;8.55;;;;;;;14.68;81.18;99975.22;5069721;28;20042;-74
2021/08/29 05:18:31;;;;;;;20.23;8.93;;;;;;;14.66;81.18;99975.28;5069162;28;20036;-73
2021/08/29 05:20:56;;;;;;;11.25;7.93;;;;;;;14.65;80.99;99981.56;5068530;28;20036;-73
2021/08/29 05:23:21;;;;;;;15.75;8.32;;;;;;;14.65;81.03;99976.25;5069705;28;20033;-72
2021/08/29 05:25:47;;;;;;;18.10;7.78;;;;;;;14.65;81.71;99980.72;5069642;28;20090;-73
2021/08/29 05:28:12;;;;;;;11.75;7.05;;;;;;;14.66;81.55;99977.94;5071173;28;20102;-73
2021/08/29 05:30:37;;;;;;;14.00;6.97;;;;;;;14.66;81.56;99982.41;5068023;28;20127;-73
2021/08/29 05:33:03;;;;;;;15.90;8.48;;;;;;;14.66;81.49;99977.94;5068845;28;20067;-73
2021/08/29 05:35:28;;;;;;;21.70;8.38;;;;;;;14.67;81.43;99984.09;5069073;28;20078;-72
2021/08/29 05:37:53;;;;;;;11.82;7.65;;;;;;;14.66;81.33;99985.91;5068919;28;20078;-73
2021/08/29 05:40:19;;;;;;;13.90;8.48;;;;;;;14.65;81.41;99981.56;5066834;28;20111;-74
2021/08/29 05:42:44;;;;;;;11.15;7.38;;;;;;;14.67;81.39;99990.28;5068914;28;20037;-74
2021/08/29 05:45:10;;;;;;;13.23;7.45;;;;;;;14.71;81.36;99982.97;5069180;28;20174;-74
2021/08/29 05:47:35;;;;;;;12.98;8.05;;;;;;;14.72;81.20;99979.38;5069385;28;20086;-74
2021/08/29 05:50:00;;;;;;;14.63;8.88;;;;;;;14.71;81.19;99981.16;5067694;28;20040;-73
2021/08/29 05:52:26;;;;;;;17.17;8.27;;;;;;;14.74;81.19;99980.13;5069073;28;20037;-73
2021/08/29 05:54:51;;;;;;;12.98;8.38;;;;;;;14.72;81.68;99977.56;5070687;28;20043;-74
2021/08/29 05:57:16;;;;;;;11.77;6.72;;;;;;;14.74;80.83;99974.81;5067771;28;20037;-74
2021/08/29 05:59:41;;;;;;;24.83;10.48;;;;;;;14.74;81.05;99982.78;5067798;28;20074;-74
2021/08/29 06:02:07;;;;;;;15.25;7.40;;;;;;;14.76;80.84;99981.72;5068231;28;20043;-73
2021/08/29 06:04:32;;;;;;;11.77;6.40;;;;;;;14.77;80.64;99980.78;5067901;28;20036;-73
2021/08/29 06:06:57;;;;;;;16.23;6.35;;;;;;;14.80;80.88;99971.78;5068007;28;20036;-73
2021/08/29 06:09:23;;;;;;;12.18;6.40;;;;;;;14.80;80.86;99982.41;5068095;28;20562;-73
2021/08/29 06:11:48;;;;;;;12.65;8.35;;;;;;;14.80;80.87;99975.28;5067794;28;20059;-72
2021/08/29 06:14:13;;;;;;;18.92;7.18;;;;;;;14.81;80.56;99970.81;5067850;28;20049;-73
2021/08/29 06:16:39;;;;;;;14.32;6.57;;;;;;;14.86;80.62;99970.53;5067849;28;20055;-73
2021/08/29 06:19:04;;;;;;;11.05;7.65;;;;;;;14.81;80.64;99978.78;5068061;28;20043;-74
2021/08/29 06:21:30;;;;;;;12.43;8.15;;;;;;;14.85;80.27;99974.13;5067482;28;20032;-74
2021/08/29 06:23:55;;;;;;;12.70;8.07;;;;;;;14.86;80.45;99971.38;5066641;28;20036;-72
2021/08/29 06:26:20;;;;;;;11.75;6.65;;;;;;;14.82;80.70;99967.22;5067211;28;20044;-72
2021/08/29 06:28:46;;;;;;;12.82;7.63;;;;;;;14.86;80.58;99965.22;5071547;28;20078;-72
2021/08/29 06:31:11;;;;;;;13.25;6.97;;;;;;;14.85;81.00;99966.19;5070026;28;20075;-73
2021/08/29 06:33:37;;;;;;;9.00;6.20;;;;;;;14.89;81.04;99962.34;5071405;28;20048;-73
2021/08/29 06:36:02;;;;;;;15.57;7.30;;;;;;;14.88;80.88;99958.84;5053154;28;20047;-73
2021/08/29 06:38:27;;;;;;;19.45;8.35;;;;;;;14.89;81.28;99959.69;5071261;28;20440;-72
2021/08/29 06:40:53;;;;;;;17.08;12.05;;;;;;;14.90;81.36;99959.63;5070400;28;20048;-72
2021/08/29 06:43:18;;;;;;;12.15;6.55;;;;;;;14.91;81.59;99961.31;5071769;28;20036;-73
2021/08/29 06:45:43;;;;;;;19.83;8.30;;;;;;;14.94;81.44;99954.94;5070994;28;20378;-72
2021/08/29 06:48:09;;;;;;;15.52;8.20;;;;;;;14.91;81.77;99956.00;5071199;28;20116;-74
2021/08/29 06:50:34;;;;;;;8.43;5.90;;;;;;;14.93;81.54;99954.09;5070251;28;20497;-72
2021/08/29 06:53:00;;;;;;;10.02;5.65;;;;;;;14.95;81.60;99951.34;5069460;28;20047;-73
2021/08/29 06:55:25;;;;;;;10.77;6.40;;;;;;;14.94;81.46;99952.28;5071205;28;20040;-73
2021/08/29 06:57:50;;;;;;;9.80;7.88;;;;;;;14.92;81.47;99951.56;5071499;28;20432;-73
2021/08/29 07:00:16;;;;;;;12.00;6.65;;;;;;;14.90;82.43;99953.47;5068578;28;20113;-72
2021/08/29 07:02:41;;;;;;;11.85;6.13;;;;;;;14.87;82.49;99957.16;5070525;28;20051;-72
2021/08/29 07:05:07;;;;;;;11.52;6.97;;;;;;;14.87;82.29;99951.00;5076383;28;20765;-71
2021/08/29 07:07:33;;;;;;;17.45;7.38;;;;;;;14.88;82.68;99955.34;5082099;28;20032;-72
2021/08/29 07:09:58;;;;;;;10.65;6.50;;;;;;;14.91;82.37;99949.84;5090043;28;20122;-72
2021/08/29 07:12:24;;;;;;;11.95;6.80;;;;;;;14.90;82.65;99950.81;5090856;28;20532;-74
2021/08/29 07:14:49;;;;;;;10.23;5.97;;;;;;;14.88;82.54;99956.19;5091544;28;20416;-72
2021/08/29 07:17:16;;;;;;;13.48;7.40;;;;;;;14.88;82.90;99948.25;5090987;27;20036;-73
2021/08/29 07:19:41;;;;;;;13.45;8.60;;;;;;;14.91;82.64;99956.00;5090392;28;20085;-73
2021/08/29 07:22:07;;;;;;;18.02;10.20;;;;;;;14.91;83.01;99941.88;5089904;28;20086;-72
2021/08/29 07:24:32;;;;;;;17.33;9.77;;;;;;;14.91;82.96;99947.19;5090681;28;20101;-73
2021/08/29 07:26:58;;;;;;;10.70;6.60;;;;;;;14.94;83.30;99944.31;5090863;28;20154;-73
2021/08/29 07:29:23;;;;;;;14.38;6.93;;;;;;;14.91;82.94;99952.50;5090603;28;20092;-74
2021/08/29 07:31:48;;;;;;;11.80;7.45;;;;;;;14.91;82.79;99949.84;5089871;28;20062;-74
2021/08/29 07:34:14;;;;;;;11.02;6.25;;;;;;;14.94;82.67;99950.50;5087065;28;20059;-74
2021/08/29 07:36:39;;;;;;;12.40;8.52;;;;;;;14.96;82.67;99950.41;5088911;28;20036;-73
2021/08/29 07:39:04;;;;;;;11.48;7.30;;;;;;;14.96;82.78;99963.66;5088955;28;20366;-74
2021/08/29 07:41:30;;;;;;;13.32;6.75;;;;;;;14.92;82.79;99959.53;5088333;28;20051;-74
2021/08/29 07:43:55;;;;;;;10.63;6.45;;;;;;;14.93;82.67;99959.41;5090524;28;20031;-71
2021/08/29 07:46:24;;;;;;;16.13;7.78;;;;;;;14.95;82.99;99961.97;5090722;28;20035;-73
2021/08/29 07:48:50;;;;;;;13.75;7.10;;;;;;;14.97;83.08;99960.09;5086979;28;20036;-72
2021/08/29 07:51:15;;;;;;;13.95;6.40;;;;;;;14.99;82.89;99961.69;5087769;28;20050;-73
2021/08/29 07:53:40;;;;;;;13.15;7.85;;;;;;;15.02;82.88;99965.94;5088667;28;20040;-74
2021/08/29 07:56:06;;;;;;;12.35;6.45;;;;;;;15.04;82.79;99966.69;5088455;28;20036;-73
2021/08/29 07:58:31;;;;;;;15.02;6.70;;;;;;;15.03;82.57;99970.28;5090291;28;20024;-74
2021/08/29 08:00:56;;;;;;;15.32;7.97;;;;;;;15.05;82.41;99960.44;5089201;28;20036;-72
2021/08/29 08:03:21;;;;;;;10.88;7.28;;;;;;;15.05;82.34;99965.72;5090403;28;20032;-73
2021/08/29 08:05:47;;;;;;;18.77;8.13;;;;;;;15.11;82.54;99961.81;5090216;28;20520;-73
2021/08/29 08:08:12;;;;;;;10.15;6.50;;;;;;;15.13;82.20;99968.72;5090046;28;20115;-72
2021/08/29 08:10:37;;;;;;;13.50;6.75;;;;;;;15.17;82.22;99959.63;5088862;28;20501;-72
2021/08/29 08:13:03;;;;;;;16.35;9.45;;;;;;;15.20;81.79;99963.88;5088367;28;20111;-72
2021/08/29 08:15:28;;;;;;;15.18;7.25;;;;;;;15.24;82.06;99966.25;5088129;28;20062;-73
2021/08/29 08:17:54;;;;;;;11.27;6.25;;;;;;;15.32;82.13;99963.06;5090365;28;20038;-74
2021/08/29 08:20:19;;;;;;;16.48;9.38;;;;;;;15.40;81.56;99971.38;5087573;28;20140;-73
2021/08/29 08:22:47;;;;;;;16.60;8.85;;;;;;;15.45;81.33;99963.94;5089824;28;20036;-74
2021/08/29 08:25:12;;;;;;;14.93;6.90;;;;;;;15.49;81.68;99969.09;5089190;28;20489;-73
2021/08/29 08:27:38;;;;;;;10.13;7.13;;;;;;;15.52;80.70;99969.72;5089694;28;20041;-74
2021/08/29 08:30:04;;;;;;;11.70;6.57;;;;;;;15.57;80.81;99970.25;5088749;28;20144;-73
2021/08/29 08:32:29;;;;;;;12.90;7.10;;;;;;;15.60;80.43;99971.84;5089425;28;20492;-73
2021/08/29 08:34:55;;;;;;;12.52;7.00;;;;;;;15.66;80.49;99974.97;5089783;28;20092;-74
2021/08/29 08:37:21;;;;;;;8.93;5.28;;;;;;;15.79;80.14;99972.34;5089945;27;20032;-74
2021/08/29 08:39:46;;;;;;;12.90;7.97;;;;;;;15.92;79.60;99969.69;5089053;28;20028;-73
2021/08/29 08:42:12;;;;;;;9.60;6.68;;;;;;;15.96;79.42;99965.03;5080017;28;20170;-72
2021/08/29 08:44:38;;;;;;;13.70;7.75;;;;;;;15.96;79.56;99976.53;5067819;28;20094;-73
2021/08/29 08:47:07;;;;;;;10.98;6.60;;;;;;;15.99;79.97;99973.66;5062424;28;20050;-71
2021/08/29 08:49:34;;;;;;;14.65;6.78;;;;;;;16.06;79.38;99966.09;5068569;28;20036;-73
2021/08/29 08:52:06;;;;;;;11.77;5.72;;;;;;;16.16;78.69;99959.19;5066905;28;20035;-73
2021/08/29 08:54:32;;;;;;;16.98;6.72;;;;;;;16.23;78.23;99963.13;5069009;28;20028;-73
2021/08/29 08:56:58;;;;;;;11.82;7.03;;;;;;;16.27;78.56;99959.31;5067827;28;20035;-73
2021/08/29 08:59:24;;;;;;;22.95;6.45;;;;;;;16.33;77.94;99958.00;5069308;28;20037;-73
2021/08/29 09:01:49;;;;;;;17.88;8.23;;;;;;;16.37;78.00;99958.66;5067798;28;20040;-73
2021/08/29 09:04:15;;;;;;;12.30;6.00;;;;;;;16.37;78.03;99959.50;5068811;28;20101;-74
2021/08/29 09:06:41;;;;;;;12.77;5.80;;;;;;;16.40;77.59;99953.97;5064072;28;20450;-73
2021/08/29 09:09:06;;;;;;;17.27;7.22;;;;;;;16.38;78.09;99952.38;5065373;28;20031;-73
2021/08/29 09:11:33;;;;;;;14.20;7.93;;;;;;;16.30;78.06;99950.25;5066628;28;20048;-73
2021/08/29 09:13:59;;;;;;;12.85;6.38;;;;;;;16.27;78.14;99953.13;5067338;28;20032;-72
2021/08/29 09:16:26;;;;;;;11.88;6.85;;;;;;;16.27;78.33;99953.97;5069357;28;20043;-70
2021/08/29 09:18:55;;;;;;;17.13;7.13;;;;;;;16.30;78.25;99953.75;5068980;28;20036;-69
2021/08/29 09:21:39;;;;;;;17.52;7.57;;;;;;;16.37;78.62;99953.34;5069517;28;20045;-69
2021/08/29 09:24:09;;;;;;;19.38;13.98;;;;;;;16.40;77.66;99955.78;5070575;28;20050;-69
2021/08/29 09:26:40;;;;;;;11.52;8.15;;;;;;;16.38;77.46;99947.03;5088073;28;20089;-68
2021/08/29 09:29:07;;;;;;;12.80;7.85;;;;;;;16.39;76.73;99946.94;5089084;28;20036;-69
2021/08/29 09:31:44;;;;;;;16.15;6.60;;;;;;;16.30;76.06;99948.44;5086086;28;20028;-70
2021/08/29 09:34:10;;;;;;;9.63;5.47;;;;;;;16.35;76.83;99940.13;5087967;28;20032;-69
2021/08/29 09:36:38;;;;;;;12.55;6.47;;;;;;;16.42;76.96;99944.06;5088846;28;20032;-70
2021/08/29 09:39:12;;;;;;;15.88;6.60;;;;;;;16.47;76.45;99946.41;5087228;28;20039;-69
2021/08/29 09:41:38;;;;;;;10.73;6.07;;;;;;;16.45;76.14;99951.81;5087495;28;20594;-68
2021/08/29 09:44:15;;;;;;;11.80;5.80;;;;;;;16.44;75.23;99955.44;5088431;28;20130;-69
2021/08/29 09:46:58;;;;;;;13.02;6.15;;;;;;;16.44;74.31;99955.44;5088599;28;20040;-69
2021/08/29 09:49:29;;;;;;;10.10;5.93;;;;;;;16.39;74.38;99951.41;5044699;28;20083;-70
2021/08/29 09:51:57;;;;;;;9.25;5.50;;;;;;;16.42;75.59;99946.72;5061438;28;20124;-70
2021/08/29 09:54:43;;;;;;;11.18;5.80;;;;;;;16.46;74.22;99955.31;5062500;28;20044;-70
2021/08/29 10:10:22;;;;;;;8.07;4.88;;;;;;;17.30;69.52;99935.03;5085216;27;20385;-44
2021/08/29 10:12:49;;;;;;;7.15;4.22;;;;;;;17.20;70.17;99926.03;5066047;28;20067;-44
2021/08/29 10:15:16;;;;;;;8.73;4.53;;;;;;;17.01;70.84;99929.25;5065986;28;20112;-45
2021/08/29 10:17:44;;;;;;;9.18;4.40;;;;;;;16.82;72.44;99932.38;5051216;28;20094;-73
2021/08/29 10:20:14;;;;;;;13.77;5.53;;;;;;;16.68;73.10;99930.69;5050204;28;20041;-73
2021/08/29 10:22:40;;;;;;;12.38;5.35;;;;;;;16.57;73.63;99928.81;5058771;28;20041;-73
2021/08/29 10:25:08;;;;;;;8.90;5.55;;;;;;;16.45;74.35;99933.19;5059908;28;20040;-74
2021/08/29 10:27:38;;;;;;;13.00;5.03;;;;;;;16.36;75.45;99931.19;5058560;28;20033;-73
2021/08/29 10:30:07;;;;;;;10.95;5.38;;;;;;;16.27;75.96;99932.69;5056878;28;20036;-72
2021/08/29 10:32:46;;;;;;;9.63;5.78;;;;;;;16.13;76.46;99930.16;5059795;28;20033;-73
2021/08/29 10:35:14;;;;;;;13.40;6.57;;;;;;;16.07;76.75;99931.44;5041451;28;20033;-74
2021/08/29 10:37:43;;;;;;;10.77;5.88;;;;;;;16.00;77.33;99929.31;5054180;28;20060;-74
2021/08/29 10:40:10;;;;;;;11.75;5.95;;;;;;;15.92;77.53;99927.16;5058747;28;20119;-73
2021/08/29 10:42:38;;;;;;;7.15;5.18;;;;;;;15.86;77.42;99938.22;5059968;28;20064;-71
2021/08/29 10:45:06;;;;;;;8.90;5.32;;;;;;;15.77;77.71;99926.41;5059617;28;20032;-74
2021/08/29 10:47:33;;;;;;;9.93;5.05;;;;;;;15.70;78.06;99932.25;5058495;28;20115;-74
2021/08/29 10:50:01;;;;;;;8.70;4.55;;;;;;;15.64;79.37;99936.16;5058609;28;20049;-73
2021/08/29 10:52:31;;;;;;;8.77;5.47;;;;;;;15.64;79.07;99941.47;5059790;28;20378;-74
2021/08/29 10:55:02;;;;;;;8.15;4.63;;;;;;;15.57;81.00;99927.75;5059360;28;20029;-45
2021/08/29 10:57:30;;;;;;;8.07;5.03;;;;;;;15.71;79.71;99929.50;5057354;28;20097;-44
2021/08/29 11:00:25;;;;;;;8.40;4.65;;;;;;;15.91;78.60;99917.50;5057669;28;20025;-45
2021/08/29 11:02:52;;;;;;;13.52;4.50;;;;;;;16.04;78.10;99931.63;5038636;28;20087;-44
2021/08/29 11:05:29;;;;;;;8.20;4.53;;;;;;;16.16;77.39;99921.09;5038583;28;20040;-47
2021/08/29 11:07:57;;;;;;;7.20;4.45;;;;;;;16.19;77.40;99918.22;5058202;28;20069;-44
2021/08/29 11:10:37;;;;;;;6.57;4.07;;;;;;;16.16;76.93;99913.97;5070333;28;20073;-73
2021/08/29 11:13:28;;;;;;;7.55;5.20;;;;;;;16.02;78.20;99912.28;5064813;28;20032;-73
2021/08/29 11:16:14;;;;;;;10.20;5.45;;;;;;;15.92;78.77;99916.53;5066704;28;20041;-74
2021/08/29 11:19:01;;;;;;;9.38;5.70;;;;;;;15.81;79.57;99909.31;5057669;28;20139;-73
2021/08/29 11:21:52;;;;;;;9.40;5.72;;;;;;;15.83;79.29;99911.88;5060079;28;20040;-73
2021/08/29 11:24:57;;;;;;;10.75;5.38;;;;;;;15.85;80.35;99908.16;5054878;28;20032;-73
2021/08/29 11:27:53;;;;;;;13.65;9.45;;;;;;;15.87;80.08;99913.34;5064784;28;20166;-72
2021/08/29 11:30:24;;;;;;;12.68;9.00;;;;;;;15.84;80.20;99911.75;5042739;28;20037;-71
2021/08/29 11:33:00;;;;;;;7.53;5.30;;;;;;;15.88;80.88;99909.75;5066186;28;20040;-73
2021/08/29 11:35:27;;;;;;;8.30;4.93;;;;;;;15.84;80.78;99911.75;5069786;28;20043;-75
2021/08/29 11:38:02;;;;;;;9.80;6.15;;;;;;;15.84;81.22;99919.72;5071044;28;20033;-73
2021/08/29 11:40:46;;;;;;;;;;;;;;;15.82;81.58;99912.81;5069298;28;20378;-74
2021/08/29 11:43:14;;;;;;;7.10;5.55;;;;;;;15.80;82.06;99912.94;5070607;28;19917;-74